sensor_id;sensor_type;location;lat;lon;timestamp;P1;durP1;ratioP1;P2;durP2;ratioP2
9960;SDS011;5021;51.506;11.320;2023-03-07T00:02:10;24.27;;;15.93;;
9960;SDS011;5021;51.506;11.320;2023-03-07T00:04:36;26.20;;;16.30;;
9960;SDS011;5021;51.506;11.320;2023-03-07T00:07:01;22.43;;;15.57;;
9960;SDS011;5021;51.506;11.320;2023-03-07T00:09:27;24.93;;;16.03;;
9960;SDS011;5021;51.506;11.320;2023-03-07T00:11:53;23.27;;;15.83;;
9960;SDS011;5021;51.506;11.320;2023-03-07T00:14:19;23.90;;;15.53;;
9960;SDS011;5021;51.506;11.320;2023-03-07T00:16:48;25.23;;;16.50;;
9960;SDS011;5021;51.506;11.320;2023-03-07T00:19:14;25.23;;;16.50;;
9960;SDS011;5021;51.506;11.320;2023-03-07T00:21:42;23.77;;;16.77;;
9960;SDS011;5021;51.506;11.320;2023-03-07T00:24:08;23.30;;;15.23;;
9960;SDS011;5021;51.506;11.320;2023-03-07T00:26:34;25.37;;;16.77;;
9960;SDS011;5021;51.506;11.320;2023-03-07T00:29:03;24.37;;;16.83;;
9960;SDS011;5021;51.506;11.320;2023-03-07T00:31:29;24.40;;;16.80;;
9960;SDS011;5021;51.506;11.320;2023-03-07T00:33:55;23.60;;;16.87;;
9960;SDS011;5021;51.506;11.320;2023-03-07T00:36:21;25.43;;;17.20;;
9960;SDS011;5021;51.506;11.320;2023-03-07T00:38:48;25.03;;;16.57;;
9960;SDS011;5021;51.506;11.320;2023-03-07T00:41:16;24.63;;;16.87;;
9960;SDS011;5021;51.506;11.320;2023-03-07T00:43:42;24.27;;;16.50;;
9960;SDS011;5021;51.506;11.320;2023-03-07T00:46:09;26.50;;;17.53;;
9960;SDS011;5021;51.506;11.320;2023-03-07T00:48:36;26.23;;;16.97;;
9960;SDS011;5021;51.506;11.320;2023-03-07T00:51:02;26.60;;;17.60;;
9960;SDS011;5021;51.506;11.320;2023-03-07T00:53:28;26.30;;;17.00;;
9960;SDS011;5021;51.506;11.320;2023-03-07T00:58:20;27.93;;;18.43;;
9960;SDS011;5021;51.506;11.320;2023-03-07T01:00:46;28.27;;;17.63;;
9960;SDS011;5021;51.506;11.320;2023-03-07T01:03:12;30.67;;;19.30;;
9960;SDS011;5021;51.506;11.320;2023-03-07T01:05:39;29.23;;;17.67;;
9960;SDS011;5021;51.506;11.320;2023-03-07T01:08:05;30.57;;;19.03;;
9960;SDS011;5021;51.506;11.320;2023-03-07T01:10:31;27.97;;;18.70;;
9960;SDS011;5021;51.506;11.320;2023-03-07T01:12:57;28.73;;;18.30;;
9960;SDS011;5021;51.506;11.320;2023-03-07T01:15:23;26.67;;;17.37;;
9960;SDS011;5021;51.506;11.320;2023-03-07T01:17:49;26.63;;;18.03;;
9960;SDS011;5021;51.506;11.320;2023-03-07T01:20:16;30.53;;;19.00;;
9960;SDS011;5021;51.506;11.320;2023-03-07T01:22:42;27.47;;;18.50;;
9960;SDS011;5021;51.506;11.320;2023-03-07T01:25:08;26.47;;;17.60;;
9960;SDS011;5021;51.506;11.320;2023-03-07T01:27:34;27.30;;;17.40;;
9960;SDS011;5021;51.506;11.320;2023-03-07T01:29:59;27.50;;;18.00;;
9960;SDS011;5021;51.506;11.320;2023-03-07T01:32:25;25.30;;;16.93;;
9960;SDS011;5021;51.506;11.320;2023-03-07T01:34:52;27.77;;;17.50;;
9960;SDS011;5021;51.506;11.320;2023-03-07T01:37:17;26.13;;;17.47;;
9960;SDS011;5021;51.506;11.320;2023-03-07T01:39:43;27.30;;;17.47;;
9960;SDS011;5021;51.506;11.320;2023-03-07T01:42:09;26.97;;;17.37;;
9960;SDS011;5021;51.506;11.320;2023-03-07T01:47:20;25.60;;;17.13;;
9960;SDS011;5021;51.506;11.320;2023-03-07T01:49:47;26.33;;;15.97;;
9960;SDS011;5021;51.506;11.320;2023-03-07T01:52:14;26.93;;;17.37;;
9960;SDS011;5021;51.506;11.320;2023-03-07T01:54:43;27.30;;;17.53;;
9960;SDS011;5021;51.506;11.320;2023-03-07T01:57:15;30.80;;;19.27;;
9960;SDS011;5021;51.506;11.320;2023-03-07T01:59:44;23.67;;;16.50;;
9960;SDS011;5021;51.506;11.320;2023-03-07T02:02:12;28.90;;;17.97;;
9960;SDS011;5021;51.506;11.320;2023-03-07T02:04:48;24.87;;;16.63;;
9960;SDS011;5021;51.506;11.320;2023-03-07T02:07:15;21.93;;;15.83;;
9960;SDS011;5021;51.506;11.320;2023-03-07T02:09:42;26.27;;;16.90;;
9960;SDS011;5021;51.506;11.320;2023-03-07T02:12:09;22.67;;;15.83;;
9960;SDS011;5021;51.506;11.320;2023-03-07T02:14:35;25.20;;;15.87;;
9960;SDS011;5021;51.506;11.320;2023-03-07T02:17:01;23.07;;;15.70;;
9960;SDS011;5021;51.506;11.320;2023-03-07T02:22:23;23.63;;;15.47;;
9960;SDS011;5021;51.506;11.320;2023-03-07T02:25:03;24.53;;;15.57;;
9960;SDS011;5021;51.506;11.320;2023-03-07T02:27:30;23.33;;;15.37;;
9960;SDS011;5021;51.506;11.320;2023-03-07T02:29:58;21.83;;;14.53;;
9960;SDS011;5021;51.506;11.320;2023-03-07T02:32:23;20.77;;;13.97;;
9960;SDS011;5021;51.506;11.320;2023-03-07T02:34:49;19.63;;;14.00;;
9960;SDS011;5021;51.506;11.320;2023-03-07T02:37:17;24.70;;;15.40;;
9960;SDS011;5021;51.506;11.320;2023-03-07T02:39:45;24.57;;;13.60;;
9960;SDS011;5021;51.506;11.320;2023-03-07T02:42:20;23.13;;;15.67;;
9960;SDS011;5021;51.506;11.320;2023-03-07T02:44:46;22.30;;;14.67;;
9960;SDS011;5021;51.506;11.320;2023-03-07T02:47:20;21.73;;;14.73;;
9960;SDS011;5021;51.506;11.320;2023-03-07T02:49:46;22.57;;;14.97;;
9960;SDS011;5021;51.506;11.320;2023-03-07T02:52:11;20.93;;;14.50;;
9960;SDS011;5021;51.506;11.320;2023-03-07T02:54:37;21.23;;;14.33;;
9960;SDS011;5021;51.506;11.320;2023-03-07T02:57:03;23.40;;;13.93;;
9960;SDS011;5021;51.506;11.320;2023-03-07T02:59:29;22.43;;;14.23;;
9960;SDS011;5021;51.506;11.320;2023-03-07T03:01:55;22.27;;;14.97;;
9960;SDS011;5021;51.506;11.320;2023-03-07T03:04:22;20.97;;;14.87;;
9960;SDS011;5021;51.506;11.320;2023-03-07T03:06:48;22.40;;;15.33;;
9960;SDS011;5021;51.506;11.320;2023-03-07T03:09:14;19.23;;;13.90;;
9960;SDS011;5021;51.506;11.320;2023-03-07T03:11:40;21.10;;;14.07;;
9960;SDS011;5021;51.506;11.320;2023-03-07T03:14:06;21.43;;;14.57;;
9960;SDS011;5021;51.506;11.320;2023-03-07T03:16:32;21.47;;;14.60;;
9960;SDS011;5021;51.506;11.320;2023-03-07T03:18:58;23.00;;;14.63;;
9960;SDS011;5021;51.506;11.320;2023-03-07T03:21:24;22.73;;;14.60;;
9960;SDS011;5021;51.506;11.320;2023-03-07T03:23:50;23.23;;;15.20;;
9960;SDS011;5021;51.506;11.320;2023-03-07T03:26:16;22.80;;;14.43;;
9960;SDS011;5021;51.506;11.320;2023-03-07T03:28:42;21.63;;;14.87;;
9960;SDS011;5021;51.506;11.320;2023-03-07T03:31:09;23.23;;;15.27;;
9960;SDS011;5021;51.506;11.320;2023-03-07T03:33:35;21.77;;;14.00;;
9960;SDS011;5021;51.506;11.320;2023-03-07T03:36:07;21.23;;;14.30;;
9960;SDS011;5021;51.506;11.320;2023-03-07T03:38:33;23.17;;;14.53;;
9960;SDS011;5021;51.506;11.320;2023-03-07T03:41:02;23.10;;;14.03;;
9960;SDS011;5021;51.506;11.320;2023-03-07T03:43:28;23.40;;;15.07;;
9960;SDS011;5021;51.506;11.320;2023-03-07T03:45:54;20.30;;;14.63;;
9960;SDS011;5021;51.506;11.320;2023-03-07T03:48:20;20.07;;;13.83;;
9960;SDS011;5021;51.506;11.320;2023-03-07T03:50:46;21.43;;;14.53;;
9960;SDS011;5021;51.506;11.320;2023-03-07T03:53:12;21.63;;;15.63;;
9960;SDS011;5021;51.506;11.320;2023-03-07T03:55:38;24.57;;;15.43;;
9960;SDS011;5021;51.506;11.320;2023-03-07T03:58:04;22.27;;;14.83;;
9960;SDS011;5021;51.506;11.320;2023-03-07T04:00:30;21.37;;;14.93;;
9960;SDS011;5021;51.506;11.320;2023-03-07T04:02:56;21.80;;;14.67;;
9960;SDS011;5021;51.506;11.320;2023-03-07T04:05:22;22.60;;;14.90;;
9960;SDS011;5021;51.506;11.320;2023-03-07T04:07:48;22.13;;;14.80;;
9960;SDS011;5021;51.506;11.320;2023-03-07T04:10:14;22.93;;;15.13;;
9960;SDS011;5021;51.506;11.320;2023-03-07T04:12:40;22.23;;;15.30;;
9960;SDS011;5021;51.506;11.320;2023-03-07T04:15:07;21.60;;;14.37;;
9960;SDS011;5021;51.506;11.320;2023-03-07T04:17:33;27.50;;;15.37;;
9960;SDS011;5021;51.506;11.320;2023-03-07T04:19:59;22.23;;;14.47;;
9960;SDS011;5021;51.506;11.320;2023-03-07T04:22:25;23.73;;;15.33;;
9960;SDS011;5021;51.506;11.320;2023-03-07T04:24:51;25.97;;;16.13;;
9960;SDS011;5021;51.506;11.320;2023-03-07T04:27:17;22.57;;;15.33;;
9960;SDS011;5021;51.506;11.320;2023-03-07T04:29:43;24.97;;;16.03;;
9960;SDS011;5021;51.506;11.320;2023-03-07T04:32:09;21.13;;;14.53;;
9960;SDS011;5021;51.506;11.320;2023-03-07T04:34:35;22.67;;;14.77;;
9960;SDS011;5021;51.506;11.320;2023-03-07T04:37:01;21.50;;;15.20;;
9960;SDS011;5021;51.506;11.320;2023-03-07T04:39:26;22.73;;;14.60;;
9960;SDS011;5021;51.506;11.320;2023-03-07T04:41:52;20.03;;;13.83;;
9960;SDS011;5021;51.506;11.320;2023-03-07T04:44:18;23.87;;;15.37;;
9960;SDS011;5021;51.506;11.320;2023-03-07T04:46:45;22.37;;;15.27;;
9960;SDS011;5021;51.506;11.320;2023-03-07T04:49:11;22.77;;;14.80;;
9960;SDS011;5021;51.506;11.320;2023-03-07T04:51:36;21.33;;;14.37;;
9960;SDS011;5021;51.506;11.320;2023-03-07T04:54:02;21.43;;;14.30;;
9960;SDS011;5021;51.506;11.320;2023-03-07T04:56:28;19.57;;;14.17;;
9960;SDS011;5021;51.506;11.320;2023-03-07T04:58:54;20.40;;;14.43;;
9960;SDS011;5021;51.506;11.320;2023-03-07T05:01:20;19.37;;;13.80;;
9960;SDS011;5021;51.506;11.320;2023-03-07T05:03:46;19.70;;;13.10;;
9960;SDS011;5021;51.506;11.320;2023-03-07T05:06:13;19.73;;;14.33;;
9960;SDS011;5021;51.506;11.320;2023-03-07T05:08:39;20.23;;;13.20;;
9960;SDS011;5021;51.506;11.320;2023-03-07T05:11:05;18.97;;;13.50;;
9960;SDS011;5021;51.506;11.320;2023-03-07T05:13:31;16.93;;;12.63;;
9960;SDS011;5021;51.506;11.320;2023-03-07T05:15:57;17.80;;;12.20;;
9960;SDS011;5021;51.506;11.320;2023-03-07T05:18:23;16.17;;;11.87;;
9960;SDS011;5021;51.506;11.320;2023-03-07T05:20:49;18.13;;;12.40;;
9960;SDS011;5021;51.506;11.320;2023-03-07T05:23:16;16.30;;;12.07;;
9960;SDS011;5021;51.506;11.320;2023-03-07T05:25:42;15.53;;;11.93;;
9960;SDS011;5021;51.506;11.320;2023-03-07T05:28:09;17.93;;;12.83;;
9960;SDS011;5021;51.506;11.320;2023-03-07T05:30:35;16.00;;;11.33;;
9960;SDS011;5021;51.506;11.320;2023-03-07T05:33:01;15.73;;;11.83;;
9960;SDS011;5021;51.506;11.320;2023-03-07T05:35:27;15.23;;;11.43;;
9960;SDS011;5021;51.506;11.320;2023-03-07T05:37:53;14.70;;;11.73;;
9960;SDS011;5021;51.506;11.320;2023-03-07T05:40:19;16.37;;;11.80;;
9960;SDS011;5021;51.506;11.320;2023-03-07T05:42:44;14.40;;;11.17;;
9960;SDS011;5021;51.506;11.320;2023-03-07T05:45:10;14.03;;;11.03;;
9960;SDS011;5021;51.506;11.320;2023-03-07T05:47:36;13.47;;;10.47;;
9960;SDS011;5021;51.506;11.320;2023-03-07T05:50:03;15.83;;;11.13;;
9960;SDS011;5021;51.506;11.320;2023-03-07T05:52:29;16.07;;;10.77;;
9960;SDS011;5021;51.506;11.320;2023-03-07T05:54:55;13.17;;;10.33;;
9960;SDS011;5021;51.506;11.320;2023-03-07T05:57:21;15.00;;;10.93;;
9960;SDS011;5021;51.506;11.320;2023-03-07T05:59:47;13.93;;;10.30;;
9960;SDS011;5021;51.506;11.320;2023-03-07T06:02:13;12.40;;;9.77;;
9960;SDS011;5021;51.506;11.320;2023-03-07T06:04:39;12.67;;;9.97;;
9960;SDS011;5021;51.506;11.320;2023-03-07T06:07:05;13.77;;;9.57;;
9960;SDS011;5021;51.506;11.320;2023-03-07T06:09:31;13.83;;;10.17;;
9960;SDS011;5021;51.506;11.320;2023-03-07T06:11:57;12.10;;;9.97;;
9960;SDS011;5021;51.506;11.320;2023-03-07T06:14:23;15.20;;;10.40;;
9960;SDS011;5021;51.506;11.320;2023-03-07T06:16:49;12.07;;;9.60;;
9960;SDS011;5021;51.506;11.320;2023-03-07T06:19:15;12.97;;;10.00;;
9960;SDS011;5021;51.506;11.320;2023-03-07T06:21:41;13.07;;;10.13;;
9960;SDS011;5021;51.506;11.320;2023-03-07T06:24:07;13.73;;;10.07;;
9960;SDS011;5021;51.506;11.320;2023-03-07T06:26:33;11.30;;;9.80;;
9960;SDS011;5021;51.506;11.320;2023-03-07T06:28:59;11.63;;;9.30;;
9960;SDS011;5021;51.506;11.320;2023-03-07T06:31:25;13.57;;;10.27;;
9960;SDS011;5021;51.506;11.320;2023-03-07T06:33:52;12.90;;;9.43;;
9960;SDS011;5021;51.506;11.320;2023-03-07T06:36:18;12.33;;;9.03;;
9960;SDS011;5021;51.506;11.320;2023-03-07T06:38:44;11.97;;;9.10;;
9960;SDS011;5021;51.506;11.320;2023-03-07T06:41:11;12.50;;;10.13;;
9960;SDS011;5021;51.506;11.320;2023-03-07T06:43:37;11.83;;;9.37;;
9960;SDS011;5021;51.506;11.320;2023-03-07T06:46:03;11.10;;;8.67;;
9960;SDS011;5021;51.506;11.320;2023-03-07T06:48:29;13.07;;;9.87;;
9960;SDS011;5021;51.506;11.320;2023-03-07T06:50:55;11.80;;;9.43;;
9960;SDS011;5021;51.506;11.320;2023-03-07T06:53:21;11.23;;;8.97;;
9960;SDS011;5021;51.506;11.320;2023-03-07T06:55:48;12.10;;;9.40;;
9960;SDS011;5021;51.506;11.320;2023-03-07T06:58:14;12.60;;;9.60;;
9960;SDS011;5021;51.506;11.320;2023-03-07T07:00:40;11.17;;;9.00;;
9960;SDS011;5021;51.506;11.320;2023-03-07T07:03:06;12.37;;;9.90;;
9960;SDS011;5021;51.506;11.320;2023-03-07T07:05:32;11.40;;;9.03;;
9960;SDS011;5021;51.506;11.320;2023-03-07T07:07:58;11.20;;;9.13;;
9960;SDS011;5021;51.506;11.320;2023-03-07T07:10:24;13.10;;;9.37;;
9960;SDS011;5021;51.506;11.320;2023-03-07T07:12:50;12.93;;;10.03;;
9960;SDS011;5021;51.506;11.320;2023-03-07T07:15:20;12.77;;;9.93;;
9960;SDS011;5021;51.506;11.320;2023-03-07T07:17:46;12.73;;;9.27;;
9960;SDS011;5021;51.506;11.320;2023-03-07T07:20:12;11.73;;;9.53;;
9960;SDS011;5021;51.506;11.320;2023-03-07T07:22:38;13.00;;;9.90;;
9960;SDS011;5021;51.506;11.320;2023-03-07T07:25:04;11.93;;;9.83;;
9960;SDS011;5021;51.506;11.320;2023-03-07T07:27:30;10.90;;;9.10;;
9960;SDS011;5021;51.506;11.320;2023-03-07T07:29:56;13.13;;;9.90;;
9960;SDS011;5021;51.506;11.320;2023-03-07T07:32:22;13.17;;;9.07;;
9960;SDS011;5021;51.506;11.320;2023-03-07T07:34:48;12.90;;;9.40;;
9960;SDS011;5021;51.506;11.320;2023-03-07T07:37:14;11.37;;;9.07;;
9960;SDS011;5021;51.506;11.320;2023-03-07T07:39:40;12.83;;;9.83;;
9960;SDS011;5021;51.506;11.320;2023-03-07T07:42:07;11.37;;;8.57;;
9960;SDS011;5021;51.506;11.320;2023-03-07T07:44:33;10.47;;;8.50;;
9960;SDS011;5021;51.506;11.320;2023-03-07T07:46:59;10.90;;;8.93;;
9960;SDS011;5021;51.506;11.320;2023-03-07T07:49:25;12.00;;;9.40;;
9960;SDS011;5021;51.506;11.320;2023-03-07T07:51:51;10.90;;;8.67;;
9960;SDS011;5021;51.506;11.320;2023-03-07T07:54:17;10.93;;;8.73;;
9960;SDS011;5021;51.506;11.320;2023-03-07T07:56:43;11.40;;;9.00;;
9960;SDS011;5021;51.506;11.320;2023-03-07T07:59:09;12.90;;;10.27;;
9960;SDS011;5021;51.506;11.320;2023-03-07T08:01:35;11.77;;;9.33;;
9960;SDS011;5021;51.506;11.320;2023-03-07T08:04:01;10.03;;;8.80;;
9960;SDS011;5021;51.506;11.320;2023-03-07T08:06:27;10.77;;;8.67;;
9960;SDS011;5021;51.506;11.320;2023-03-07T08:08:54;13.33;;;10.43;;
9960;SDS011;5021;51.506;11.320;2023-03-07T08:11:21;12.83;;;9.17;;
9960;SDS011;5021;51.506;11.320;2023-03-07T08:13:47;10.77;;;8.43;;
9960;SDS011;5021;51.506;11.320;2023-03-07T08:16:14;10.80;;;9.03;;
9960;SDS011;5021;51.506;11.320;2023-03-07T08:18:41;10.73;;;9.03;;
9960;SDS011;5021;51.506;11.320;2023-03-07T08:21:08;12.43;;;9.83;;
9960;SDS011;5021;51.506;11.320;2023-03-07T08:23:34;9.50;;;7.67;;
9960;SDS011;5021;51.506;11.320;2023-03-07T08:26:01;9.43;;;7.80;;
9960;SDS011;5021;51.506;11.320;2023-03-07T08:28:27;9.93;;;8.30;;
9960;SDS011;5021;51.506;11.320;2023-03-07T08:30:53;8.47;;;7.40;;
9960;SDS011;5021;51.506;11.320;2023-03-07T08:33:19;9.17;;;7.67;;
9960;SDS011;5021;51.506;11.320;2023-03-07T08:35:45;9.93;;;8.30;;
9960;SDS011;5021;51.506;11.320;2023-03-07T08:38:11;9.30;;;7.77;;
9960;SDS011;5021;51.506;11.320;2023-03-07T08:40:37;9.83;;;8.00;;
9960;SDS011;5021;51.506;11.320;2023-03-07T08:43:03;11.30;;;8.03;;
9960;SDS011;5021;51.506;11.320;2023-03-07T08:45:29;9.93;;;8.20;;
9960;SDS011;5021;51.506;11.320;2023-03-07T08:47:55;10.70;;;8.80;;
9960;SDS011;5021;51.506;11.320;2023-03-07T08:50:22;9.23;;;7.90;;
9960;SDS011;5021;51.506;11.320;2023-03-07T08:52:48;9.27;;;8.20;;
9960;SDS011;5021;51.506;11.320;2023-03-07T08:55:14;9.90;;;8.70;;
9960;SDS011;5021;51.506;11.320;2023-03-07T08:57:40;9.73;;;8.00;;
9960;SDS011;5021;51.506;11.320;2023-03-07T09:00:06;10.53;;;9.23;;
9960;SDS011;5021;51.506;11.320;2023-03-07T09:02:33;10.30;;;9.20;;
9960;SDS011;5021;51.506;11.320;2023-03-07T09:04:59;10.00;;;8.57;;
9960;SDS011;5021;51.506;11.320;2023-03-07T09:07:26;11.90;;;9.50;;
9960;SDS011;5021;51.506;11.320;2023-03-07T09:09:52;12.07;;;10.00;;
9960;SDS011;5021;51.506;11.320;2023-03-07T09:12:18;12.07;;;9.57;;
9960;SDS011;5021;51.506;11.320;2023-03-07T09:14:44;11.07;;;9.10;;
9960;SDS011;5021;51.506;11.320;2023-03-07T09:17:10;9.80;;;8.77;;
9960;SDS011;5021;51.506;11.320;2023-03-07T09:19:36;11.77;;;9.40;;
9960;SDS011;5021;51.506;11.320;2023-03-07T09:22:02;12.67;;;9.47;;
9960;SDS011;5021;51.506;11.320;2023-03-07T09:24:28;10.43;;;8.67;;
9960;SDS011;5021;51.506;11.320;2023-03-07T09:26:54;10.93;;;9.10;;
9960;SDS011;5021;51.506;11.320;2023-03-07T09:29:20;11.03;;;9.73;;
9960;SDS011;5021;51.506;11.320;2023-03-07T09:31:46;11.93;;;9.73;;
9960;SDS011;5021;51.506;11.320;2023-03-07T09:34:12;11.23;;;9.43;;
9960;SDS011;5021;51.506;11.320;2023-03-07T09:36:38;11.87;;;9.17;;
9960;SDS011;5021;51.506;11.320;2023-03-07T09:39:04;10.87;;;9.27;;
9960;SDS011;5021;51.506;11.320;2023-03-07T09:47:01;12.53;;;10.20;;
9960;SDS011;5021;51.506;11.320;2023-03-07T09:52:08;11.57;;;9.03;;
9960;SDS011;5021;51.506;11.320;2023-03-07T09:54:37;10.87;;;9.53;;
9960;SDS011;5021;51.506;11.320;2023-03-07T09:57:04;12.27;;;10.67;;
9960;SDS011;5021;51.506;11.320;2023-03-07T10:00:16;11.40;;;9.60;;
9960;SDS011;5021;51.506;11.320;2023-03-07T10:02:38;12.30;;;9.23;;
9960;SDS011;5021;51.506;11.320;2023-03-07T10:07:34;11.57;;;9.47;;
9960;SDS011;5021;51.506;11.320;2023-03-07T10:10:02;12.07;;;10.00;;
9960;SDS011;5021;51.506;11.320;2023-03-07T10:15:06;11.33;;;9.10;;
9960;SDS011;5021;51.506;11.320;2023-03-07T10:20:28;12.10;;;10.07;;
9960;SDS011;5021;51.506;11.320;2023-03-07T10:22:58;12.93;;;10.90;;
9960;SDS011;5021;51.506;11.320;2023-03-07T10:25:26;11.80;;;9.77;;
9960;SDS011;5021;51.506;11.320;2023-03-07T10:28:01;12.67;;;10.13;;
9960;SDS011;5021;51.506;11.320;2023-03-07T10:30:34;12.70;;;10.40;;
9960;SDS011;5021;51.506;11.320;2023-03-07T10:33:00;12.47;;;9.80;;
9960;SDS011;5021;51.506;11.320;2023-03-07T10:35:37;13.83;;;10.93;;
9960;SDS011;5021;51.506;11.320;2023-03-07T10:38:10;13.27;;;11.27;;
9960;SDS011;5021;51.506;11.320;2023-03-07T10:40:49;14.30;;;10.60;;
9960;SDS011;5021;51.506;11.320;2023-03-07T10:43:27;14.37;;;10.90;;
9960;SDS011;5021;51.506;11.320;2023-03-07T10:48:31;13.30;;;10.73;;
9960;SDS011;5021;51.506;11.320;2023-03-07T10:51:00;15.83;;;10.80;;
9960;SDS011;5021;51.506;11.320;2023-03-07T10:53:30;14.77;;;11.17;;
9960;SDS011;5021;51.506;11.320;2023-03-07T10:56:08;14.33;;;10.97;;
9960;SDS011;5021;51.506;11.320;2023-03-07T10:58:34;12.60;;;10.17;;
9960;SDS011;5021;51.506;11.320;2023-03-07T11:03:53;13.73;;;10.50;;
9960;SDS011;5021;51.506;11.320;2023-03-07T11:14:27;13.83;;;11.27;;
9960;SDS011;5021;51.506;11.320;2023-03-07T11:16:57;12.47;;;9.83;;
9960;SDS011;5021;51.506;11.320;2023-03-07T11:19:25;12.57;;;10.17;;
9960;SDS011;5021;51.506;11.320;2023-03-07T11:21:53;13.47;;;9.93;;
9960;SDS011;5021;51.506;11.320;2023-03-07T11:24:22;13.87;;;10.67;;
9960;SDS011;5021;51.506;11.320;2023-03-07T11:26:52;14.13;;;10.37;;
9960;SDS011;5021;51.506;11.320;2023-03-07T11:29:18;12.03;;;9.93;;
9960;SDS011;5021;51.506;11.320;2023-03-07T11:32:04;12.40;;;9.93;;
9960;SDS011;5021;51.506;11.320;2023-03-07T11:34:39;13.50;;;10.27;;
9960;SDS011;5021;51.506;11.320;2023-03-07T11:37:13;13.47;;;10.37;;
9960;SDS011;5021;51.506;11.320;2023-03-07T11:39:56;12.23;;;10.10;;
9960;SDS011;5021;51.506;11.320;2023-03-07T11:42:30;12.97;;;10.03;;
9960;SDS011;5021;51.506;11.320;2023-03-07T11:44:58;13.17;;;10.30;;
9960;SDS011;5021;51.506;11.320;2023-03-07T11:50:45;12.20;;;10.17;;
9960;SDS011;5021;51.506;11.320;2023-03-07T11:53:07;11.57;;;9.13;;
9960;SDS011;5021;51.506;11.320;2023-03-07T11:55:35;12.10;;;9.70;;
9960;SDS011;5021;51.506;11.320;2023-03-07T11:58:13;10.23;;;8.67;;
9960;SDS011;5021;51.506;11.320;2023-03-07T12:00:50;10.73;;;8.93;;
9960;SDS011;5021;51.506;11.320;2023-03-07T12:03:37;10.40;;;8.60;;
9960;SDS011;5021;51.506;11.320;2023-03-07T12:08:49;11.27;;;9.27;;
9960;SDS011;5021;51.506;11.320;2023-03-07T12:11:34;12.27;;;9.20;;
9960;SDS011;5021;51.506;11.320;2023-03-07T12:16:35;12.30;;;9.70;;
9960;SDS011;5021;51.506;11.320;2023-03-07T12:19:22;10.93;;;9.00;;
9960;SDS011;5021;51.506;11.320;2023-03-07T12:24:45;13.90;;;9.43;;
9960;SDS011;5021;51.506;11.320;2023-03-07T12:27:19;10.97;;;8.80;;
9960;SDS011;5021;51.506;11.320;2023-03-07T12:29:49;11.40;;;8.77;;
9960;SDS011;5021;51.506;11.320;2023-03-07T12:32:18;13.23;;;9.40;;
9960;SDS011;5021;51.506;11.320;2023-03-07T12:34:57;11.20;;;8.57;;
9960;SDS011;5021;51.506;11.320;2023-03-07T12:40:04;12.10;;;9.37;;
9960;SDS011;5021;51.506;11.320;2023-03-07T12:42:39;12.27;;;8.80;;
9960;SDS011;5021;51.506;11.320;2023-03-07T12:47:43;23.50;;;14.07;;
9960;SDS011;5021;51.506;11.320;2023-03-07T12:50:16;12.07;;;8.50;;
9960;SDS011;5021;51.506;11.320;2023-03-07T12:52:47;13.00;;;9.37;;
9960;SDS011;5021;51.506;11.320;2023-03-07T12:55:28;13.07;;;9.77;;
9960;SDS011;5021;51.506;11.320;2023-03-07T12:58:16;15.93;;;10.57;;
9960;SDS011;5021;51.506;11.320;2023-03-07T13:00:46;11.10;;;9.27;;
9960;SDS011;5021;51.506;11.320;2023-03-07T13:03:16;10.80;;;8.40;;
9960;SDS011;5021;51.506;11.320;2023-03-07T13:05:43;10.97;;;9.03;;
9960;SDS011;5021;51.506;11.320;2023-03-07T13:08:09;12.53;;;9.10;;
9960;SDS011;5021;51.506;11.320;2023-03-07T13:10:40;10.67;;;8.57;;
9960;SDS011;5021;51.506;11.320;2023-03-07T13:16:01;11.63;;;9.53;;
9960;SDS011;5021;51.506;11.320;2023-03-07T13:18:28;12.53;;;8.53;;
9960;SDS011;5021;51.506;11.320;2023-03-07T13:21:09;12.07;;;9.70;;
9960;SDS011;5021;51.506;11.320;2023-03-07T13:23:35;11.23;;;8.90;;
9960;SDS011;5021;51.506;11.320;2023-03-07T13:26:02;11.60;;;9.23;;
9960;SDS011;5021;51.506;11.320;2023-03-07T13:33:45;11.73;;;9.30;;
9960;SDS011;5021;51.506;11.320;2023-03-07T13:38:56;11.23;;;9.47;;
9960;SDS011;5021;51.506;11.320;2023-03-07T13:44:24;10.70;;;9.23;;
9960;SDS011;5021;51.506;11.320;2023-03-07T13:46:51;9.90;;;8.20;;
9960;SDS011;5021;51.506;11.320;2023-03-07T13:49:31;11.37;;;7.43;;
9960;SDS011;5021;51.506;11.320;2023-03-07T13:54:42;9.17;;;7.27;;
9960;SDS011;5021;51.506;11.320;2023-03-07T13:57:17;5.00;;;4.37;;
9960;SDS011;5021;51.506;11.320;2023-03-07T13:59:47;5.20;;;4.33;;
9960;SDS011;5021;51.506;11.320;2023-03-07T14:02:15;5.10;;;3.93;;
9960;SDS011;5021;51.506;11.320;2023-03-07T14:04:49;4.37;;;3.97;;
9960;SDS011;5021;51.506;11.320;2023-03-07T14:07:21;4.13;;;3.63;;
9960;SDS011;5021;51.506;11.320;2023-03-07T14:10:08;5.53;;;4.17;;
9960;SDS011;5021;51.506;11.320;2023-03-07T14:15:28;4.50;;;3.73;;
9960;SDS011;5021;51.506;11.320;2023-03-07T14:20:27;3.37;;;2.80;;
9960;SDS011;5021;51.506;11.320;2023-03-07T14:25:31;3.63;;;2.53;;
9960;SDS011;5021;51.506;11.320;2023-03-07T14:28:01;2.47;;;2.27;;
9960;SDS011;5021;51.506;11.320;2023-03-07T14:30:31;2.40;;;2.20;;
9960;SDS011;5021;51.506;11.320;2023-03-07T14:32:58;2.20;;;2.00;;
9960;SDS011;5021;51.506;11.320;2023-03-07T14:35:41;2.43;;;2.00;;
9960;SDS011;5021;51.506;11.320;2023-03-07T14:38:08;3.50;;;2.60;;
9960;SDS011;5021;51.506;11.320;2023-03-07T14:40:41;2.97;;;2.30;;
9960;SDS011;5021;51.506;11.320;2023-03-07T14:43:32;3.77;;;2.50;;
9960;SDS011;5021;51.506;11.320;2023-03-07T14:51:17;2.00;;;1.90;;
9960;SDS011;5021;51.506;11.320;2023-03-07T14:53:44;2.87;;;1.70;;
9960;SDS011;5021;51.506;11.320;2023-03-07T14:56:13;1.87;;;1.70;;
9960;SDS011;5021;51.506;11.320;2023-03-07T14:58:53;2.37;;;2.17;;
9960;SDS011;5021;51.506;11.320;2023-03-07T15:01:20;3.17;;;2.17;;
9960;SDS011;5021;51.506;11.320;2023-03-07T15:03:47;1.77;;;1.50;;
9960;SDS011;5021;51.506;11.320;2023-03-07T15:06:14;1.40;;;1.30;;
9960;SDS011;5021;51.506;11.320;2023-03-07T15:08:40;1.50;;;1.40;;
9960;SDS011;5021;51.506;11.320;2023-03-07T15:11:29;1.50;;;1.40;;
9960;SDS011;5021;51.506;11.320;2023-03-07T15:13:56;2.20;;;1.80;;
9960;SDS011;5021;51.506;11.320;2023-03-07T15:16:25;1.57;;;1.30;;
9960;SDS011;5021;51.506;11.320;2023-03-07T15:18:54;2.17;;;1.90;;
9960;SDS011;5021;51.506;11.320;2023-03-07T15:21:21;3.80;;;2.37;;
9960;SDS011;5021;51.506;11.320;2023-03-07T15:23:51;2.70;;;2.50;;
9960;SDS011;5021;51.506;11.320;2023-03-07T15:26:17;2.80;;;2.53;;
9960;SDS011;5021;51.506;11.320;2023-03-07T15:28:45;4.70;;;3.10;;
9960;SDS011;5021;51.506;11.320;2023-03-07T15:31:12;3.53;;;2.87;;
9960;SDS011;5021;51.506;11.320;2023-03-07T15:33:39;3.97;;;3.17;;
9960;SDS011;5021;51.506;11.320;2023-03-07T15:38:31;4.70;;;2.50;;
9960;SDS011;5021;51.506;11.320;2023-03-07T15:40:57;3.90;;;2.60;;
9960;SDS011;5021;51.506;11.320;2023-03-07T15:43:25;4.77;;;2.60;;
9960;SDS011;5021;51.506;11.320;2023-03-07T15:45:59;3.17;;;2.37;;
9960;SDS011;5021;51.506;11.320;2023-03-07T15:48:28;3.40;;;2.80;;
9960;SDS011;5021;51.506;11.320;2023-03-07T15:50:57;3.57;;;2.90;;
9960;SDS011;5021;51.506;11.320;2023-03-07T15:53:25;3.17;;;2.50;;
9960;SDS011;5021;51.506;11.320;2023-03-07T15:55:54;2.37;;;2.17;;
9960;SDS011;5021;51.506;11.320;2023-03-07T15:58:20;2.60;;;2.40;;
9960;SDS011;5021;51.506;11.320;2023-03-07T16:00:46;4.13;;;2.27;;
9960;SDS011;5021;51.506;11.320;2023-03-07T16:05:41;3.80;;;2.60;;
9960;SDS011;5021;51.506;11.320;2023-03-07T16:08:08;2.70;;;2.50;;
9960;SDS011;5021;51.506;11.320;2023-03-07T16:10:36;3.83;;;3.30;;
9960;SDS011;5021;51.506;11.320;2023-03-07T16:13:02;3.73;;;3.43;;
9960;SDS011;5021;51.506;11.320;2023-03-07T16:15:28;3.40;;;3.10;;
9960;SDS011;5021;51.506;11.320;2023-03-07T16:17:54;3.63;;;3.03;;